Time;durP1;ratioP1;P1;durP2;ratioP2;P2;SDS_P1;SDS_P2;PMS_P1;PMS_P2;Temp;Humidity;BMP_temperature;BMP_pressure;BME280_temperature;BME280_humidity;BME280_pressure;Samples;Min_cycle;Max_cycle;Signal;HPM_P1;HPM_P2
2023/12/01 00:00:51;;;;;;;;;;;;;;;22.97;32.05;100411.88;5064144;28;19924;-46
2023/12/01 00:03:16;;;;;;;;;;;;;;;22.97;31.79;100411.88;5062218;28;19950;-43
2023/12/01 00:05:41;;;;;;;;;;;;;;;22.98;31.99;100415.41;5063487;28;19995;-43
2023/12/01 00:08:07;;;;;;;;;;;;;;;22.95;32.16;100419.38;5064213;28;19913;-43
2023/12/01 00:10:32;;;;;;;;;;;;;;;22.95;31.90;100411.25;5063418;28;19964;-44
2023/12/01 00:12:57;;;;;;;;;;;;;;;22.97;32.09;100413.75;5063967;28;20012;-44
2023/12/01 00:15:22;;;;;;;;;;;;;;;22.96;31.93;100415.63;5063802;28;19935;-43
2023/12/01 00:17:47;;;;;;;;;;;;;;;22.94;32.21;100415.84;5063501;28;19916;-48
2023/12/01 00:20:13;;;;;;;;;;;;;;;22.95;31.85;100419.38;5063597;28;19917;-45
2023/12/01 00:22:38;;;;;;;;;;;;;;;22.93;32.07;100414.16;5063042;28;19984;-49
2023/12/01 00:25:03;;;;;;;;;;;;;;;22.94;31.96;100412.31;5062466;28;19955;-47
2023/12/01 00:27:28;;;;;;;;;;;;;;;22.93;32.10;100419.56;5064125;28;19917;-46
2023/12/01 00:29:54;;;;;;;;;;;;;;;22.93;31.97;100410.59;5063193;28;19924;-45
2023/12/01 00:32:19;;;;;;;;;;;;;;;22.91;32.11;100410.81;5063748;28;19917;-43
2023/12/01 00:34:45;;;;;;;;;;;;;;;22.92;32.22;100412.50;5062734;28;19951;-48
2023/12/01 00:37:10;;;;;;;;;;;;;;;22.92;32.09;100426.03;5061165;28;19928;-48
2023/12/01 00:39:35;;;;;;;;;;;;;;;22.92;31.97;100426.03;5062680;28;19928;-47
2023/12/01 00:42:00;;;;;;;;;;;;;;;22.93;31.80;100422.28;5062825;28;19947;-44
2023/12/01 00:44:25;;;;;;;;;;;;;;;22.90;32.16;100420.00;5063202;28;19963;-43
2023/12/01 00:46:51;;;;;;;;;;;;;;;22.91;32.10;100423.56;5061520;28;19931;-46
2023/12/01 00:49:16;;;;;;;;;;;;;;;22.91;32.07;100424.38;5062909;28;19971;-48
2023/12/01 00:51:43;;;;;;;;;;;;;;;22.91;32.11;100429.81;5063033;28;19943;-44
2023/12/01 00:54:09;;;;;;;;;;;;;;;22.92;31.94;100430.63;5061530;28;19916;-48
2023/12/01 00:56:34;;;;;;;;;;;;;;;22.90;32.18;100430.03;5062489;28;19951;-44
2023/12/01 00:58:59;;;;;;;;;;;;;;;22.88;31.90;100427.47;5062508;28;19916;-46
2023/12/01 01:01:24;;;;;;;;;;;;;;;22.88;32.00;100427.47;5063187;28;19921;-48
2023/12/01 01:03:50;;;;;;;;;;;;;;;22.88;31.96;100429.34;5063062;28;19920;-45
2023/12/01 01:06:15;;;;;;;;;;;;;;;22.87;31.83;100427.69;5061262;28;19952;-48
2023/12/01 01:08:40;;;;;;;;;;;;;;;22.88;31.94;100442.91;5065805;28;20015;-46
2023/12/01 01:11:05;;;;;;;;;;;;;;;22.86;31.89;100435.00;5067438;28;20367;-45
2023/12/01 01:13:32;;;;;;;;;;;;;;;22.87;31.90;100433.09;5066783;28;19929;-48
2023/12/01 01:15:57;;;;;;;;;;;;;;;22.86;31.99;100439.56;5067658;28;19916;-48
2023/12/01 01:18:23;;;;;;;;;;;;;;;22.86;31.97;100437.69;5066021;28;19939;-46
2023/12/01 01:20:48;;;;;;;;;;;;;;;22.88;31.84;100442.91;5067285;28;19923;-45
2023/12/01 01:23:13;;;;;;;;;;;;;;;22.88;31.89;100448.31;5065527;28;20007;-45
2023/12/01 01:25:38;;;;;;;;;;;;;;;22.88;31.99;100451.03;5066574;28;19920;-48
2023/12/01 01:28:04;;;;;;;;;;;;;;;22.86;32.11;100443.13;5067327;28;19912;-48
2023/12/01 01:30:29;;;;;;;;;;;;;;;22.86;32.09;100445.81;5066797;28;19922;-48
2023/12/01 01:32:54;;;;;;;;;;;;;;;22.86;32.02;100445.00;5067235;28;20478;-46
2023/12/01 01:35:19;;;;;;;;;;;;;;;22.86;31.91;100447.72;5065699;28;19980;-48
2023/12/01 01:37:44;;;;;;;;;;;;;;;22.86;32.00;100451.25;5048452;28;19980;-48
2023/12/01 01:40:11;;;;;;;;;;;;;;;22.86;31.91;100451.25;5066171;28;19917;-47
2023/12/01 01:42:37;;;;;;;;;;;;;;;22.85;32.00;100446.88;5066570;28;19928;-48
2023/12/01 01:45:02;;;;;;;;;;;;;;;22.86;31.75;100453.13;5048478;28;19913;-47
2023/12/01 01:47:27;;;;;;;;;;;;;;;22.85;32.04;100454.16;5065469;28;20350;-48
2023/12/01 01:49:54;;;;;;;;;;;;;;;22.84;31.97;100458.75;5048357;28;19962;-49
2023/12/01 01:52:19;;;;;;;;;;;;;;;22.83;32.03;100461.66;5066073;28;19975;-48
2023/12/01 01:54:44;;;;;;;;;;;;;;;22.82;32.25;100465.41;5065864;28;20446;-45
2023/12/01 01:57:09;;;;;;;;;;;;;;;22.84;32.06;100466.03;5065843;28;19916;-48
2023/12/01 01:59:34;;;;;;;;;;;;;;;22.84;31.91;100463.31;5065769;28;19960;-48
2023/12/01 02:02:00;;;;;;;;;;;;;;;22.84;32.18;100453.31;5066499;28;19917;-45
2023/12/01 02:04:25;;;;;;;;;;;;;;;22.84;32.12;100464.16;5065502;28;19919;-45
2023/12/01 02:06:50;;;;;;;;;;;;;;;22.85;32.10;100468.56;5048276;28;19920;-48
2023/12/01 02:09:16;;;;;;;;;;;;;;;22.84;32.13;100466.03;5065724;28;19913;-48
2023/12/01 02:11:41;;;;;;;;;;;;;;;22.84;32.18;100463.31;5066478;28;20417;-46
2023/12/01 02:14:06;;;;;;;;;;;;;;;22.83;31.98;100467.09;5065594;28;19939;-46
2023/12/01 02:16:32;;;;;;;;;;;;;;;22.83;31.89;100467.09;5065788;28;19919;-47
2023/12/01 02:18:57;;;;;;;;;;;;;;;22.81;31.99;100464.59;5065476;28;20058;-47
2023/12/01 02:21:26;;;;;;;;;;;;;;;22.81;32.09;100466.44;5065884;28;20334;-46
2023/12/01 02:23:52;;;;;;;;;;;;;;;22.81;31.91;100463.72;5063808;28;19917;-44
2023/12/01 02:26:17;;;;;;;;;;;;;;;22.81;31.95;100463.72;5065535;28;19908;-45
2023/12/01 02:28:42;;;;;;;;;;;;;;;22.82;31.84;100465.41;5065694;28;19997;-45
2023/12/01 02:31:07;;;;;;;;;;;;;;;22.81;32.15;100470.00;5064089;28;19924;-47
2023/12/01 02:33:32;;;;;;;;;;;;;;;22.81;32.13;100466.44;5065134;28;20054;-47
2023/12/01 02:35:58;;;;;;;;;;;;;;;22.80;31.99;100476.44;5063528;28;20418;-44
2023/12/01 02:38:24;;;;;;;;;;;;;;;22.80;31.99;100475.63;5063235;28;20441;-47
2023/12/01 02:40:49;;;;;;;;;;;;;;;22.80;32.05;100484.56;5064833;28;19920;-44
2023/12/01 02:43:14;;;;;;;;;;;;;;;22.81;32.01;100472.72;5065331;28;19948;-47
2023/12/01 02:45:40;;;;;;;;;;;;;;;22.81;31.83;100480.84;5065381;28;19996;-47
2023/12/01 02:48:05;;;;;;;;;;;;;;;22.44;32.04;100419.88;5065102;28;20410;-48
2023/12/01 02:50:34;;;;;;;;;;;;;;;22.81;31.91;100480.84;5065436;28;19942;-46
2023/12/01 02:52:59;;;;;;;;;;;;;;;22.81;31.72;100480.84;5064860;28;19921;-46
2023/12/01 02:55:24;;;;;;;;;;;;;;;22.81;31.99;100478.16;5062430;28;20066;-45
2023/12/01 02:57:49;;;;;;;;;;;;;;;22.79;31.78;100474.78;5065143;28;19924;-46
2023/12/01 03:00:15;;;;;;;;;;;;;;;22.80;31.92;100486.47;5064454;28;19921;-45
2023/12/01 03:02:41;;;;;;;;;;;;;;;22.79;31.88;100479.38;5065508;28;19917;-44
2023/12/01 03:05:06;;;;;;;;;;;;;;;22.79;32.14;100490.22;5063117;28;19940;-44
2023/12/01 03:07:32;;;;;;;;;;;;;;;22.80;31.84;100494.59;5047264;28;19951;-46
2023/12/01 03:09:57;;;;;;;;;;;;;;;22.80;32.07;100487.28;5063213;28;20355;-44
2023/12/01 03:12:22;;;;;;;;;;;;;;;22.81;31.72;100488.97;5065250;28;19942;-42
2023/12/01 03:14:47;;;;;;;;;;;;;;;22.80;31.98;100490.00;5062169;28;20406;-46
2023/12/01 03:17:12;;;;;;;;;;;;;;;22.79;31.90;100491.06;5064386;28;19947;-43
2023/12/01 03:19:38;;;;;;;;;;;;;;;22.79;32.09;100487.50;5064755;28;19980;-45
2023/12/01 03:22:03;;;;;;;;;;;;;;;22.78;32.00;100483.13;5064801;28;19917;-45
2023/12/01 03:24:28;;;;;;;;;;;;;;;22.77;31.83;100487.72;5064404;28;19913;-45
2023/12/01 03:26:54;;;;;;;;;;;;;;;22.78;32.05;100485.84;5064672;28;19956;-44
2023/12/01 03:29:19;;;;;;;;;;;;;;;22.78;31.76;100496.69;5064164;28;19917;-44
2023/12/01 03:31:44;;;;;;;;;;;;;;;22.76;31.79;100487.91;5064138;28;19948;-49
2023/12/01 03:34:09;;;;;;;;;;;;;;;22.77;32.09;100484.16;5062897;28;19917;-44
2023/12/01 03:36:34;;;;;;;;;;;;;;;22.76;31.92;100493.31;5064637;28;19916;-44
2023/12/01 03:38:59;;;;;;;;;;;;;;;22.76;31.76;100490.63;5061618;28;19921;-44
2023/12/01 03:41:25;;;;;;;;;;;;;;;22.76;31.70;100501.47;5064463;28;19912;-46
2023/12/01 03:43:50;;;;;;;;;;;;;;;22.76;31.91;100494.16;5063796;28;19916;-44
2023/12/01 03:46:15;;;;;;;;;;;;;;;22.75;31.92;100500.63;5064159;28;19921;-45
2023/12/01 03:48:40;;;;;;;;;;;;;;;22.77;31.88;100495.84;5063620;28;19921;-43
2023/12/01 03:51:09;;;;;;;;;;;;;;;22.76;32.01;100487.91;5063504;28;19912;-49
2023/12/01 03:53:35;;;;;;;;;;;;;;;22.76;31.82;100494.16;5063636;28;19932;-45
2023/12/01 03:56:00;;;;;;;;;;;;;;;22.75;32.13;100503.34;5063461;28;20347;-45
2023/12/01 03:58:25;;;;;;;;;;;;;;;22.76;31.94;100505.00;5059686;28;19917;-45
2023/12/01 04:00:51;;;;;;;;;;;;;;;22.76;32.05;100507.72;5063877;28;19998;-46
2023/12/01 04:03:17;;;;;;;;;;;;;;;22.77;32.12;100503.13;5063566;28;19948;-46
2023/12/01 04:05:42;;;;;;;;;;;;;;;22.77;31.68;100506.69;5063885;28;19920;-47
2023/12/01 04:08:07;;;;;;;;;;;;;;;22.80;31.44;100508.97;5063869;28;19917;-48
2023/12/01 04:10:33;;;;;;;;;;;;;;;22.79;31.74;100509.19;5063587;28;19955;-49
2023/12/01 04:13:06;;;;;;;;;;;;;;;22.82;31.46;100512.34;5064363;28;19923;-48
2023/12/01 04:15:32;;;;;;;;;;;;;;;22.83;31.77;100514.00;5062793;28;19920;-48
2023/12/01 04:17:57;;;;;;;;;;;;;;;22.84;31.76;100515.66;5064282;28;19951;-47
2023/12/01 04:20:25;;;;;;;;;;;;;;;22.85;31.78;100521.91;5063206;28;19944;-48
2023/12/01 04:22:50;;;;;;;;;;;;;;;22.85;31.64;100524.63;5063938;28;19917;-45
2023/12/01 04:25:16;;;;;;;;;;;;;;;22.86;31.37;100518.19;5062487;28;19927;-47
2023/12/01 04:27:41;;;;;;;;;;;;;;;22.87;31.50;100533.41;5063888;28;19920;-46
2023/12/01 04:30:13;;;;;;;;;;;;;;;22.88;31.41;100535.91;5063375;28;19921;-47
2023/12/01 04:32:39;;;;;;;;;;;;;;;22.88;31.36;100538.59;5063606;28;19924;-46
2023/12/01 04:35:05;;;;;;;;;;;;;;;22.92;31.25;100541.78;5059009;28;19966;-43
2023/12/01 04:37:31;;;;;;;;;;;;;;;22.94;31.45;100537.00;5063684;28;19919;-49
2023/12/01 04:39:56;;;;;;;;;;;;;;;22.97;31.33;100541.16;5062513;28;19917;-49
2023/12/01 04:42:21;;;;;;;;;;;;;;;23.00;31.40;100538.88;5063580;28;19952;-46
2023/12/01 04:44:47;;;;;;;;;;;;;;;23.02;31.12;100546.81;5060476;28;19917;-48
2023/12/01 04:47:13;;;;;;;;;;;;;;;23.04;30.96;100548.28;5062946;28;19924;-48
2023/12/01 04:49:38;;;;;;;;;;;;;;;23.07;30.95;100545.19;5062829;28;20315;-47
2023/12/01 04:52:04;;;;;;;;;;;;;;;23.08;31.32;100552.25;5063445;28;19924;-44
2023/12/01 04:54:30;;;;;;;;;;;;;;;23.09;30.85;100553.94;5061223;28;20340;-48
2023/12/01 04:56:55;;;;;;;;;;;;;;;23.10;30.82;100562.91;5063639;28;19924;-46
2023/12/01 04:59:20;;;;;;;;;;;;;;;23.12;30.97;100558.13;5061974;28;19928;-47
2023/12/01 05:01:45;;;;;;;;;;;;;;;23.15;31.09;100563.09;5061897;28;19913;-47
2023/12/01 05:04:10;;;;;;;;;;;;;;;23.18;30.99;100560.81;5062333;28;19916;-45
2023/12/01 05:06:36;;;;;;;;;;;;;;;23.23;30.79;100562.91;5063185;28;20279;-46
2023/12/01 05:09:01;;;;;;;;;;;;;;;23.25;30.66;100573.59;5062629;28;19955;-48
2023/12/01 05:11:26;;;;;;;;;;;;;;;23.25;30.73;100574.41;5062967;28;20554;-47
2023/12/01 05:13:51;;;;;;;;;;;;;;;23.24;30.66;100571.91;5062605;28;20013;-44
2023/12/01 05:16:17;;;;;;;;;;;;;;;23.25;30.72;100570.88;5063273;28;19932;-46
2023/12/01 05:18:42;;;;;;;;;;;;;;;23.25;30.73;100579.84;5062934;28;19976;-49
2023/12/01 05:21:08;;;;;;;;;;;;;;;23.27;30.55;100583.16;5062531;28;19912;-47
2023/12/01 05:23:34;;;;;;;;;;;;;;;23.36;29.91;100581.09;5062310;28;19927;-47
2023/12/01 05:25:59;;;;;;;;;;;;;;;23.41;30.37;100581.34;5060737;28;19917;-43
2023/12/01 05:28:25;;;;;;;;;;;;;;;23.45;30.35;100582.59;5062598;28;19932;-44
2023/12/01 05:30:50;;;;;;;;;;;;;;;23.52;30.21;100594.28;5062222;28;20394;-48
2023/12/01 05:33:16;;;;;;;;;;;;;;;23.57;30.21;100585.50;5044440;28;19921;-48
2023/12/01 05:35:45;;;;;;;;;;;;;;;23.64;29.75;100589.91;5045015;28;19939;-47
2023/12/01 05:38:11;;;;;;;;;;;;;;;23.71;29.87;100589.97;5060454;28;19950;-45
2023/12/01 05:40:36;;;;;;;;;;;;;;;23.78;29.89;100593.50;5062313;28;19948;-47
2023/12/01 05:43:02;;;;;;;;;;;;;;;23.83;29.79;100593.72;5061958;28;19921;-47
2023/12/01 05:45:28;;;;;;;;;;;;;;;23.84;29.70;100599.97;5062330;28;19913;-46
2023/12/01 05:47:54;;;;;;;;;;;;;;;23.83;29.65;100601.88;5062285;28;20345;-48
2023/12/01 05:50:20;;;;;;;;;;;;;;;23.84;29.76;100600.81;5062666;28;19917;-45
2023/12/01 05:52:45;;;;;;;;;;;;;;;23.81;29.57;100598.50;5061024;28;19921;-43
2023/12/01 05:55:14;;;;;;;;;;;;;;;23.90;29.30;100607.28;5062426;28;19931;-46
2023/12/01 05:57:50;;;;;;;;;;;;;;;23.91;29.65;100612.50;5048360;28;19917;-48
2023/12/01 06:00:17;;;;;;;;;;;;;;;23.91;29.40;100612.50;5063007;28;20001;-47
2023/12/01 06:02:43;;;;;;;;;;;;;;;23.95;29.13;100623.78;5066128;28;19912;-45
2023/12/01 06:05:08;;;;;;;;;;;;;;;23.93;29.30;100618.56;5064531;28;20393;-46
2023/12/01 06:07:34;;;;;;;;;;;;;;;23.95;29.30;100630.03;5062795;28;19996;-46
2023/12/01 06:09:59;;;;;;;;;;;;;;;24.00;29.44;100634.00;5062995;28;19920;-47
2023/12/01 06:12:24;;;;;;;;;;;;;;;23.99;28.92;100632.34;5065601;28;19967;-48
2023/12/01 06:14:50;;;;;;;;;;;;;;;23.94;28.83;100631.09;5064054;28;19960;-46
2023/12/01 06:17:15;;;;;;;;;;;;;;;23.85;29.20;100637.78;5065997;28;19917;-47
2023/12/01 06:19:40;;;;;;;;;;;;;;;23.74;29.42;100641.09;5046603;28;20328;-48
2023/12/01 06:22:05;;;;;;;;;;;;;;;23.65;29.68;100651.31;5065645;28;19927;-44
2023/12/01 06:24:33;;;;;;;;;;;;;;;23.62;29.60;100650.88;5063248;28;20023;-46
2023/12/01 06:27:00;;;;;;;;;;;;;;;23.56;29.85;100649.81;5063974;28;19917;-43
2023/12/01 06:29:25;;;;;;;;;;;;;;;23.54;29.80;100648.38;5064658;28;19998;-47
2023/12/01 06:31:50;;;;;;;;;;;;;;;23.54;29.93;100648.38;5064599;28;19928;-46
2023/12/01 06:34:15;;;;;;;;;;;;;;;23.50;29.87;100655.25;5064530;28;19917;-45
2023/12/01 06:36:40;;;;;;;;;;;;;;;23.48;30.22;100654.59;5065589;28;19943;-45
2023/12/01 06:39:10;;;;;;;;;;;;;;;23.47;29.91;100655.66;5064000;28;19916;-46
2023/12/01 06:41:35;;;;;;;;;;;;;;;23.48;30.05;100658.13;5065373;28;19951;-44
2023/12/01 06:44:00;;;;;;;;;;;;;;;23.45;29.94;100658.56;5061155;28;19920;-46
2023/12/01 06:46:25;;;;;;;;;;;;;;;23.42;30.07;100653.53;5064950;28;19925;-45
2023/12/01 06:48:52;;;;;;;;;;;;;;;23.41;30.11;100655.44;5063886;28;20421;-46
2023/12/01 06:51:18;;;;;;;;;;;;;;;23.42;30.57;100658.97;5065217;28;19923;-44
2023/12/01 06:53:43;;;;;;;;;;;;;;;23.47;30.13;100663.78;5064395;28;19956;-46
2023/12/01 06:56:08;;;;;;;;;;;;;;;23.45;30.00;100664.84;5062529;28;19916;-46
2023/12/01 06:58:33;;;;;;;;;;;;;;;23.39;29.94;100660.22;5062494;28;19913;-44
2023/12/01 07:01:00;;;;;;;;;;;;;;;23.34;30.37;100673.56;5063428;28;19916;-44
2023/12/01 07:03:25;;;;;;;;;;;;;;;23.34;30.37;100676.25;5061384;28;19925;-44
2023/12/01 07:05:51;;;;;;;;;;;;;;;23.28;30.12;100679.81;5064247;28;20230;-44
2023/12/01 07:08:17;;;;;;;;;;;;;;;23.27;30.42;100678.09;5061652;28;20260;-46
2023/12/01 07:10:42;;;;;;;;;;;;;;;23.25;30.43;100684.78;5064905;28;20422;-44
2023/12/01 07:13:07;;;;;;;;;;;;;;;23.22;30.29;100683.31;5064789;28;20506;-44
2023/12/01 07:15:32;;;;;;;;;;;;;;;23.22;30.30;100686.03;5064085;28;19924;-42
2023/12/01 07:17:58;;;;;;;;;;;;;;;23.16;30.34;100695.81;5064908;28;19923;-44
2023/12/01 07:20:24;;;;;;;;;;;;;;;23.01;30.68;100689.69;5064569;28;19966;-48
2023/12/01 07:22:51;;;;;;;;;;;;;;;22.86;31.09;100692.50;5064943;28;19917;-47
2023/12/01 07:25:25;;;;;;;;;;;;;;;22.74;31.29;100702.22;5063621;28;19952;-43
2023/12/01 07:27:53;;;;;;;;;;;;;;;22.59;31.34;100698.78;5064502;28;19913;-43
2023/12/01 07:30:18;;;;;;;;;;;;;;;22.49;31.42;100701.84;5062231;28;19939;-44
2023/12/01 07:32:44;;;;;;;;;;;;;;;22.42;31.61;100701.78;5064422;28;19920;-46
2023/12/01 07:35:10;;;;;;;;;;;;;;;22.37;31.90;100704.25;5063529;28;19913;-47
2023/12/01 07:37:36;;;;;;;;;;;;;;;22.30;32.04;100699.81;5064664;28;19943;-51
2023/12/01 07:40:06;;;;;;;;;;;;;;;22.23;32.21;100707.06;5063645;28;19924;-49
2023/12/01 07:42:31;;;;;;;;;;;;;;;22.21;32.11;100716.19;5064276;28;19916;-50
2023/12/01 07:44:56;;;;;;;;;;;;;;;22.21;31.99;100705.38;5063316;28;19960;-48
2023/12/01 07:47:21;;;;;;;;;;;;;;;22.16;32.07;100720.53;5063917;28;19943;-47
2023/12/01 07:49:46;;;;;;;;;;;;;;;22.11;32.12;100723.81;5063734;28;20329;-49
2023/12/01 07:52:12;;;;;;;;;;;;;;;22.11;32.21;100720.25;5060709;28;19921;-49
2023/12/01 07:54:37;;;;;;;;;;;;;;;22.13;32.02;100723.63;5045096;28;19917;-47
2023/12/01 07:57:03;;;;;;;;;;;;;;;22.14;32.17;100730.75;5060744;28;19919;-50
2023/12/01 07:59:28;;;;;;;;;;;;;;;22.12;32.08;100732.75;5063794;28;20375;-48
2023/12/01 08:01:53;;;;;;;;;;;;;;;22.08;32.47;100728.75;5064021;28;19920;-47
2023/12/01 08:04:19;;;;;;;;;;;;;;;22.02;32.40;100729.56;5044666;28;19917;-48
2023/12/01 08:06:44;;;;;;;;;;;;;;;21.98;32.45;100730.97;5063532;28;19920;-50
2023/12/01 08:09:11;;;;;;;;;;;;;;;21.93;32.72;100735.09;5062711;28;19923;-50
2023/12/01 08:11:36;;;;;;;;;;;;;;;21.93;32.74;100732.38;5063104;28;19970;-50
2023/12/01 08:14:03;;;;;;;;;;;;;;;21.94;32.53;100739.47;5063013;28;19928;-47
2023/12/01 08:16:28;;;;;;;;;;;;;;;21.92;32.83;100744.25;5063730;28;19913;-50
2023/12/01 08:18:53;;;;;;;;;;;;;;;21.45;32.74;100663.59;5063037;28;19917;-49
2023/12/01 08:21:18;;;;;;;;;;;;;;;21.91;32.56;100736.31;5043598;28;19923;-47
2023/12/01 08:23:43;;;;;;;;;;;;;;;21.90;32.59;100738.16;5063169;28;19917;-50
2023/12/01 08:26:09;;;;;;;;;;;;;;;21.89;32.62;100736.50;5062946;28;19956;-48
2023/12/01 08:28:34;;;;;;;;;;;;;;;21.85;32.76;100734.38;5063695;28;19966;-49
2023/12/01 08:30:59;;;;;;;;;;;;;;;21.83;32.88;100734.56;5062759;28;19917;-47
2023/12/01 08:33:24;;;;;;;;;;;;;;;21.85;32.74;100739.78;5063005;28;19927;-48
2023/12/01 08:35:50;;;;;;;;;;;;;;;21.87;32.40;100741.25;5062714;28;19920;-50
2023/12/01 08:38:15;;;;;;;;;;;;;;;21.88;32.38;100740.25;5062990;28;19956;-50
2023/12/01 08:40:40;;;;;;;;;;;;;;;21.86;32.59;100734.16;5062399;28;19992;-49
2023/12/01 08:43:06;;;;;;;;;;;;;;;21.83;32.32;100734.56;5063044;28;19924;-50
2023/12/01 08:45:31;;;;;;;;;;;;;;;21.81;32.66;100733.91;5062428;28;19987;-49
2023/12/01 08:47:56;;;;;;;;;;;;;;;21.80;32.47;100737.66;5044648;28;19924;-48
2023/12/01 08:50:21;;;;;;;;;;;;;;;21.78;32.56;100736.16;5062542;28;19917;-46
2023/12/01 08:52:47;;;;;;;;;;;;;;;21.75;32.80;100740.09;5060042;28;19928;-50
2023/12/01 08:55:12;;;;;;;;;;;;;;;21.74;32.62;100745.69;5042074;28;20375;-48
2023/12/01 08:57:37;;;;;;;;;;;;;;;21.73;32.68;100749.44;5062762;28;20363;-45
2023/12/01 09:00:03;;;;;;;;;;;;;;;21.71;32.69;100745.06;5044727;28;19920;-47
2023/12/01 09:02:28;;;;;;;;;;;;;;;21.68;32.69;100750.84;5063098;28;19913;-50
2023/12/01 09:04:53;;;;;;;;;;;;;;;21.67;32.77;100745.63;5062021;28;19913;-47
2023/12/01 09:07:18;;;;;;;;;;;;;;;21.68;32.39;100750.00;5062383;28;19917;-48
2023/12/01 09:09:43;;;;;;;;;;;;;;;21.68;32.50;100755.44;5062123;28;19952;-47
2023/12/01 09:12:08;;;;;;;;;;;;;;;21.66;32.81;100754.75;5062869;28;20023;-51
2023/12/01 09:14:34;;;;;;;;;;;;;;;21.62;32.52;100756.16;5062413;28;19912;-49
2023/12/01 09:16:59;;;;;;;;;;;;;;;21.57;32.56;100751.31;5062584;28;20278;-46
2023/12/01 09:19:24;;;;;;;;;;;;;;;21.55;32.94;100760.69;5063166;28;20007;-47
2023/12/01 09:21:49;;;;;;;;;;;;;;;21.52;33.04;100759.19;5061997;28;19917;-46
2023/12/01 09:24:14;;;;;;;;;;;;;;;21.50;32.99;100752.31;5061473;28;19917;-47
2023/12/01 09:26:40;;;;;;;;;;;;;;;21.51;33.13;100764.78;5061954;28;19913;-46
2023/12/01 09:29:05;;;;;;;;;;;;;;;21.51;32.90;100764.78;5064455;28;19980;-47
2023/12/01 09:31:30;;;;;;;;;;;;;;;21.50;33.20;100768.53;5066381;28;19912;-50
2023/12/01 09:33:55;;;;;;;;;;;;;;;21.49;33.21;100775.78;5066505;28;19917;-48
2023/12/01 09:36:20;;;;;;;;;;;;;;;21.50;32.97;100773.94;5065310;28;19920;-45
2023/12/01 09:38:49;;;;;;;;;;;;;;;21.48;33.29;100784.09;5066526;28;20469;-47
2023/12/01 09:41:15;;;;;;;;;;;;;;;21.47;32.91;100783.25;5066005;28;19920;-45
2023/12/01 09:43:43;;;;;;;;;;;;;;;21.45;33.01;100788.88;5066537;28;19912;-48
2023/12/01 09:46:09;;;;;;;;;;;;;;;21.44;33.23;100784.47;5065505;28;19951;-46
2023/12/01 09:48:37;;;;;;;;;;;;;;;21.41;32.93;100787.56;5081991;28;19916;-48
2023/12/01 09:51:04;;;;;;;;;;;;;;;21.43;33.02;100792.78;5065098;28;19921;-47
2023/12/01 09:53:29;;;;;;;;;;;;;;;21.43;33.27;100800.91;5066323;28;19923;-46
2023/12/01 09:55:54;;;;;;;;;;;;;;;21.40;33.16;100793.97;5045435;28;19925;-45
2023/12/01 09:58:19;;;;;;;;;;;;;;;21.40;33.29;100803.97;5066248;28;19919;-43
2023/12/01 10:00:47;;;;;;;;;;;;;;;21.40;33.15;100798.56;5066116;28;19920;-43
2023/12/01 10:03:12;;;;;;;;;;;;;;;21.39;33.15;100802.28;5065566;28;19923;-43
2023/12/01 10:05:38;;;;;;;;;;;;;;;21.37;33.18;100802.50;5065423;28;19948;-45
2023/12/01 10:08:04;;;;;;;;;;;;;;;21.40;32.92;100806.66;5046317;28;20419;-45
2023/12/01 10:10:29;;;;;;;;;;;;;;;21.39;32.94;100813.94;5063347;28;19987;-46
2023/12/01 10:12:55;;;;;;;;;;;;;;;21.37;32.82;100810.59;5064543;28;19990;-45
2023/12/01 10:15:20;;;;;;;;;;;;;;;21.38;32.98;100812.28;5065712;28;19976;-47
2023/12/01 10:17:45;;;;;;;;;;;;;;;21.40;32.90;100821.03;5066100;28;19969;-46
2023/12/01 10:20:17;;;;;;;;;;;;;;;21.39;32.96;100811.25;5065714;28;19923;-46
2023/12/01 10:22:43;;;;;;;;;;;;;;;21.39;32.72;100807.72;5046845;28;19913;-45
2023/12/01 10:25:08;;;;;;;;;;;;;;;21.36;33.11;100811.59;5064888;28;19917;-49
2023/12/01 10:27:35;;;;;;;;;;;;;;;21.33;32.95;100808.47;5048306;28;19936;-46
2023/12/01 10:30:13;;;;;;;;;;;;;;;21.31;32.89;100810.47;5065772;28;19916;-47
2023/12/01 10:32:38;;;;;;;;;;;;;;;21.31;33.14;100808.59;5065091;28;19921;-47
2023/12/01 10:35:07;;;;;;;;;;;;;;;21.30;32.88;100809.63;5064486;28;20016;-48
2023/12/01 10:37:32;;;;;;;;;;;;;;;21.29;32.83;100805.25;5047338;28;19920;-46
2023/12/01 10:39:57;;;;;;;;;;;;;;;21.28;33.11;100806.28;5064497;28;19920;-45
2023/12/01 10:42:26;;;;;;;;;;;;;;;21.27;32.81;100804.59;5046580;28;19916;-45
2023/12/01 10:44:51;;;;;;;;;;;;;;;21.27;33.11;100801.88;5047267;28;19927;-45
2023/12/01 10:47:17;;;;;;;;;;;;;;;21.27;32.90;100796.47;5046756;28;19925;-46
2023/12/01 10:49:44;;;;;;;;;;;;;;;21.27;33.12;100803.75;5065642;28;19920;-49
2023/12/01 10:52:09;;;;;;;;;;;;;;;21.25;33.15;100806.66;5047200;28;19917;-48
2023/12/01 10:54:34;;;;;;;;;;;;;;;21.25;33.09;100812.06;5064389;28;19953;-49
2023/12/01 10:57:16;;;;;;;;;;;;;;;21.27;32.84;100809.16;5064763;28;20023;-47
2023/12/01 10:59:43;;;;;;;;;;;;;;;21.27;32.72;100804.59;5047093;28;19913;-46
2023/12/01 11:02:08;;;;;;;;;;;;;;;21.28;33.03;100803.59;5046769;28;19916;-47
2023/12/01 11:04:33;;;;;;;;;;;;;;;21.31;33.03;100796.94;5064104;28;19927;-49
2023/12/01 11:07:08;;;;;;;;;;;;;;;21.31;32.87;100797.78;5064784;28;19966;-49
2023/12/01 11:09:52;;;;;;;;;;;;;;;21.29;32.80;100788.19;5060520;28;19921;-46
2023/12/01 11:12:29;;;;;;;;;;;;;;;21.31;32.79;100797.78;5053754;28;19955;-47
2023/12/01 11:14:55;;;;;;;;;;;;;;;21.33;32.67;100798.50;5076667;28;19913;-49
2023/12/01 11:17:20;;;;;;;;;;;;;;;21.37;32.83;100802.50;5064135;28;20156;-46
2023/12/01 11:19:45;;;;;;;;;;;;;;;21.42;32.56;100807.34;5062472;28;20389;-45
2023/12/01 11:22:27;;;;;;;;;;;;;;;21.43;32.55;100806.31;5060241;28;19916;-50
2023/12/01 11:24:52;;;;;;;;;;;;;;;21.42;32.71;100801.94;5043808;28;20482;-49
2023/12/01 11:27:19;;;;;;;;;;;;;;;21.43;32.85;100807.13;5063734;28;19976;-46
2023/12/01 11:30:12;;;;;;;;;;;;;;;21.43;32.61;100801.72;5044421;28;19982;-49
2023/12/01 11:32:40;;;;;;;;;;;;;;;21.45;32.57;100799.69;5060855;28;19924;-48
2023/12/01 11:35:09;;;;;;;;;;;;;;;21.47;32.64;100802.19;5061037;28;19913;-46
2023/12/01 11:37:54;;;;;;;;;;;;;;;21.49;32.81;100805.53;5044137;28;20387;-46
2023/12/01 11:40:20;;;;;;;;;;;;;;;21.48;32.73;100797.63;5056097;28;19916;-50
2023/12/01 11:42:55;;;;;;;;;;;;;;;21.48;32.85;100803.03;5045843;28;19921;-50
2023/12/01 11:45:34;;;;;;;;;;;;;;;21.50;33.11;100806.41;5044772;28;19917;-48
2023/12/01 11:48:02;;;;;;;;;;;;;;;21.51;32.94;100803.50;5061757;28;19920;-49
2023/12/01 11:50:27;;;;;;;;;;;;;;;21.52;33.02;100810.59;5062819;28;19917;-49
2023/12/01 11:52:53;;;;;;;;;;;;;;;21.52;32.76;100815.16;5060044;28;19975;-49
2023/12/01 11:55:18;;;;;;;;;;;;;;;21.54;32.80;100813.13;5044787;28;19939;-49
2023/12/01 11:57:50;;;;;;;;;;;;;;;21.59;32.86;100818.78;5044160;28;19955;-49
2023/12/01 12:00:16;;;;;;;;;;;;;;;21.60;32.79;100818.59;5061270;28;20363;-50
2023/12/01 12:02:42;;;;;;;;;;;;;;;21.48;33.22;100795.75;5061802;28;19927;-49
2023/12/01 12:05:07;;;;;;;;;;;;;;;21.61;33.08;100812.16;5059342;28;19936;-46
2023/12/01 12:07:32;;;;;;;;;;;;;;;21.61;33.08;100816.72;5062609;28;19923;-48
2023/12/01 12:09:58;;;;;;;;;;;;;;;21.61;33.07;100811.31;5045372;28;19938;-49
2023/12/01 12:12:23;;;;;;;;;;;;;;;21.67;32.95;100799.75;5060712;28;19920;-46
2023/12/01 12:14:50;;;;;;;;;;;;;;;21.72;32.91;100802.72;5059288;28;19924;-48
2023/12/01 12:17:17;;;;;;;;;;;;;;;21.74;32.62;100806.06;5061545;28;19928;-47
2023/12/01 12:19:42;;;;;;;;;;;;;;;21.74;32.90;100810.63;5045095;28;19928;-45
2023/12/01 12:22:08;;;;;;;;;;;;;;;21.73;32.67;100801.69;5061784;28;19916;-47
2023/12/01 12:24:33;;;;;;;;;;;;;;;21.73;32.87;100798.97;5043471;28;20379;-47
2023/12/01 12:26:58;;;;;;;;;;;;;;;21.77;32.84;100794.88;5042261;28;19913;-50
2023/12/01 12:29:24;;;;;;;;;;;;;;;21.82;32.59;100799.72;5062846;28;19913;-49